Time;durP1;ratioP1;P1;durP2;ratioP2;P2;SDS_P1;SDS_P2;PMS_P1;PMS_P2;Temp;Humidity;BMP_temperature;BMP_pressure;BME280_temperature;BME280_humidity;BME280_pressure;Samples;Min_cycle;Max_cycle;Signal;HPM_P1;HPM_P2
2023/09/11 00:01:07;;;;;;;11.07;9.00;;;;;;;20.28;95.30;98128.75;4103030;28;20724;-84
2023/09/11 00:03:11;;;;;;;13.23;10.60;;;;;;;20.29;94.22;98126.94;4123837;28;20709;-85
2023/09/11 00:05:14;;;;;;;11.03;9.93;;;;;;;20.29;94.41;98125.13;4123722;28;20662;-84
2023/09/11 00:07:18;;;;;;;10.77;8.97;;;;;;;20.28;95.14;98120.78;4134383;28;21012;-84
2023/09/11 00:09:21;;;;;;;10.97;9.87;;;;;;;20.27;95.20;98121.00;4121129;28;20661;-85
2023/09/11 00:11:24;;;;;;;12.60;10.70;;;;;;;20.26;95.65;98116.66;4118959;28;20685;-84
2023/09/11 00:13:27;;;;;;;12.67;11.10;;;;;;;20.23;94.55;98124.94;4119074;28;21076;-84
2023/09/11 00:15:34;;;;;;;11.07;9.97;;;;;;;20.19;94.29;98123.59;4127239;28;20637;-85
2023/09/11 00:17:37;;;;;;;12.97;10.40;;;;;;;20.14;94.87;98115.31;4107118;28;20638;-85
2023/09/11 00:19:40;;;;;;;13.00;10.60;;;;;;;20.12;94.63;98115.50;4118042;28;20637;-84
2023/09/11 00:21:44;;;;;;;11.87;10.53;;;;;;;20.10;95.71;98113.97;4125246;28;21140;-84
2023/09/11 00:23:47;;;;;;;11.50;10.30;;;;;;;20.07;94.39;98111.66;4110577;28;20731;-84
2023/09/11 00:25:49;;;;;;;11.07;9.80;;;;;;;20.04;94.99;98111.97;4124207;28;20645;-84
2023/09/11 00:27:52;;;;;;;12.60;10.30;;;;;;;20.03;96.53;98113.00;4118647;28;20636;-85
2023/09/11 00:29:57;;;;;;;12.03;10.83;;;;;;;20.02;95.20;98100.72;4119521;28;20648;-84
2023/09/11 00:32:02;;;;;;;13.57;10.40;;;;;;;20.01;94.61;98105.22;4109463;28;20717;-84
2023/09/11 00:34:05;;;;;;;11.70;10.00;;;;;;;19.98;96.01;98105.53;4109980;28;20629;-85
2023/09/11 00:36:08;;;;;;;12.23;10.13;;;;;;;19.97;94.71;98103.03;4124614;28;20635;-84
2023/09/11 00:38:14;;;;;;;11.20;10.10;;;;;;;19.94;94.96;98104.19;4125139;28;20727;-85
2023/09/11 00:40:17;;;;;;;12.00;10.57;;;;;;;19.94;94.50;98106.03;4118738;28;20649;-84
2023/09/11 00:42:20;;;;;;;11.23;9.90;;;;;;;19.90;96.13;98104.66;4105485;28;20641;-84
2023/09/11 00:44:24;;;;;;;12.43;10.30;;;;;;;19.87;94.87;98097.06;4117562;28;21011;-85
2023/09/11 00:46:28;;;;;;;10.77;9.67;;;;;;;19.85;95.11;98101.66;4122427;28;21109;-84
2023/09/11 00:48:33;;;;;;;13.53;10.17;;;;;;;19.84;96.64;98102.63;4109973;28;20636;-85
2023/09/11 00:50:36;;;;;;;11.97;10.77;;;;;;;19.83;95.36;98097.50;4117194;28;20661;-84
2023/09/11 00:52:40;;;;;;;10.30;9.20;;;;;;;19.81;95.85;98092.38;4106340;28;20632;-85
2023/09/11 00:54:43;;;;;;;13.40;9.70;;;;;;;19.78;96.50;98092.69;4120845;28;20689;-85
2023/09/11 00:56:47;;;;;;;13.13;10.83;;;;;;;19.76;96.80;98088.56;4119481;28;20641;-84
2023/09/11 00:58:51;;;;;;;12.00;10.63;;;;;;;19.74;96.34;98090.53;4121635;28;20624;-84
2023/09/11 01:00:54;;;;;;;12.03;9.87;;;;;;;19.74;96.95;98095.81;4120700;28;21192;-85
2023/09/11 01:02:58;;;;;;;11.87;10.67;;;;;;;19.72;96.03;98087.22;4111702;28;20637;-84
2023/09/11 01:05:07;;;;;;;11.27;10.10;;;;;;;19.69;96.47;98077.78;4111083;28;20664;-85
2023/09/11 01:07:12;;;;;;;11.00;9.63;;;;;;;19.67;96.98;98086.88;4118478;28;20635;-84
2023/09/11 01:09:15;;;;;;;11.00;9.90;;;;;;;19.63;96.12;98083.72;4121347;28;20636;-85
2023/09/11 01:11:20;;;;;;;12.30;11.07;;;;;;;19.59;95.44;98082.38;4104521;28;20661;-84
2023/09/11 01:13:22;;;;;;;10.80;9.70;;;;;;;19.57;95.34;98076.41;4101442;28;21212;-85
2023/09/11 01:15:29;;;;;;;11.37;10.17;;;;;;;19.55;96.09;98078.41;4117978;28;20624;-84
2023/09/11 01:17:37;;;;;;;12.40;10.10;;;;;;;19.56;96.29;98076.56;4113558;28;20636;-85
2023/09/11 01:19:55;;;;;;;11.73;10.10;;;;;;;19.54;95.53;98082.03;4117053;28;20686;-85
2023/09/11 01:22:18;;;;;;;12.10;9.63;;;;;;;19.55;97.02;98074.94;4120467;28;20629;-85
2023/09/11 01:24:51;;;;;;;13.50;10.53;;;;;;;19.56;96.98;98077.41;4117303;28;20724;-85
2023/09/11 01:27:19;;;;;;;12.97;9.80;;;;;;;19.57;96.70;98073.75;4122006;28;21036;-84
2023/09/11 01:29:25;;;;;;;11.90;10.70;;;;;;;19.54;96.17;98073.25;4108513;28;21024;-84
2023/09/11 01:31:30;;;;;;;12.80;10.07;;;;;;;19.49;96.00;98068.44;4104445;28;20659;-84
2023/09/11 01:33:34;;;;;;;10.03;9.03;;;;;;;19.43;96.53;98058.50;4123533;28;20690;-84
2023/09/11 01:35:37;;;;;;;13.07;10.80;;;;;;;19.40;97.11;98060.66;4109499;28;20644;-84
2023/09/11 01:37:41;;;;;;;11.47;10.00;;;;;;;19.39;96.01;98058.97;4104277;28;20684;-84
2023/09/11 01:39:44;;;;;;;11.50;10.00;;;;;;;19.38;96.57;98057.34;4105561;28;20634;-84
2023/09/11 01:41:48;;;;;;;13.90;11.00;;;;;;;19.41;95.65;98052.56;4121855;28;20635;-84
2023/09/11 01:43:51;;;;;;;14.27;9.80;;;;;;;19.43;97.06;98055.84;4110603;28;20728;-84
2023/09/11 01:45:56;;;;;;;11.80;10.60;;;;;;;19.45;97.24;98061.00;4119474;28;21214;-84
2023/09/11 01:48:00;;;;;;;11.73;10.53;;;;;;;19.44;96.71;98064.66;4106634;28;21072;-84
2023/09/11 01:50:03;;;;;;;12.27;10.80;;;;;;;19.42;97.39;98059.50;4105415;28;20636;-84
2023/09/11 01:52:07;;;;;;;10.53;9.43;;;;;;;19.39;96.29;98067.75;4106943;28;20647;-84
2023/09/11 01:54:11;;;;;;;12.30;10.43;;;;;;;19.39;95.90;98065.13;4116003;28;20672;-84
2023/09/11 01:56:15;;;;;;;11.60;10.40;;;;;;;19.39;96.04;98073.06;4122824;28;20643;-84
2023/09/11 01:58:18;;;;;;;16.73;12.47;;;;;;;19.35;97.16;98068.25;4102116;28;20638;-84
2023/09/11 02:00:21;;;;;;;11.33;10.13;;;;;;;19.33;97.00;98066.72;4119694;28;20726;-84
2023/09/11 02:02:29;;;;;;;10.77;9.67;;;;;;;19.30;96.91;98070.50;4119355;28;20820;-84
2023/09/11 02:04:33;;;;;;;11.53;10.13;;;;;;;19.28;97.31;98072.50;4121285;28;20668;-84
2023/09/11 02:06:35;;;;;;;11.27;10.10;;;;;;;19.26;96.12;98069.19;4120129;28;20632;-87
2023/09/11 02:08:40;;;;;;;13.77;10.00;;;;;;;19.22;97.40;98067.84;4120407;28;20625;-87
2023/09/11 02:10:44;;;;;;;10.67;9.60;;;;;;;19.19;96.80;98065.50;4098605;28;21362;-86
2023/09/11 02:12:46;;;;;;;11.17;10.07;;;;;;;19.19;97.09;98064.69;4115050;28;21312;-87
2023/09/11 02:14:49;;;;;;;10.97;9.87;;;;;;;19.17;96.47;98070.13;4118910;28;20659;-86
2023/09/11 02:16:52;;;;;;;11.97;9.73;;;;;;;19.15;96.91;98072.09;4113647;28;20643;-87
2023/09/11 02:18:57;;;;;;;13.23;11.40;;;;;;;19.15;97.09;98069.44;4113457;28;20669;-87
2023/09/11 02:21:00;;;;;;;12.57;10.23;;;;;;;19.11;96.74;98065.47;4117338;28;20739;-87
2023/09/11 02:23:03;;;;;;;12.37;10.13;;;;;;;19.09;96.82;98063.97;4116908;28;20632;-87
2023/09/11 02:25:07;;;;;;;12.30;10.53;;;;;;;19.10;96.97;98057.72;4117234;28;20689;-87
2023/09/11 02:27:10;;;;;;;10.73;9.70;;;;;;;19.07;96.57;98064.13;4090633;28;20683;-87
2023/09/11 02:29:13;;;;;;;11.50;10.30;;;;;;;19.04;96.93;98058.34;4117883;28;21194;-87
2023/09/11 02:31:16;;;;;;;11.33;10.23;;;;;;;18.96;95.83;98056.44;4116876;28;21316;-86
2023/09/11 02:33:19;;;;;;;11.37;10.27;;;;;;;18.94;96.53;98057.56;4116820;28;20682;-87
2023/09/11 02:35:24;;;;;;;14.30;11.03;;;;;;;18.92;96.19;98056.91;4118864;28;21054;-87
2023/09/11 02:37:27;;;;;;;11.70;10.50;;;;;;;18.89;96.94;98054.56;4117000;28;20644;-87
2023/09/11 02:39:31;;;;;;;11.37;10.17;;;;;;;18.92;97.16;98051.63;4105289;28;20896;-86
2023/09/11 02:41:34;;;;;;;13.40;11.30;;;;;;;18.95;97.51;98061.88;4123176;28;20711;-87
2023/09/11 02:43:37;;;;;;;11.97;10.43;;;;;;;18.98;96.76;98059.75;4115943;28;21195;-85
2023/09/11 02:45:43;;;;;;;15.23;11.23;;;;;;;18.99;98.07;98056.13;4112832;28;20644;-87
2023/09/11 02:47:46;;;;;;;11.23;10.13;;;;;;;19.02;96.95;98060.31;4120280;28;20643;-87
2023/09/11 02:49:49;;;;;;;10.63;9.57;;;;;;;19.01;98.02;98059.47;4119969;28;21231;-86
2023/09/11 02:51:55;;;;;;;12.70;11.17;;;;;;;19.01;97.53;98061.25;4110502;28;21249;-87
2023/09/11 02:53:58;;;;;;;14.63;10.93;;;;;;;18.97;96.87;98057.25;4122938;28;21325;-86
2023/09/11 02:56:01;;;;;;;11.03;9.93;;;;;;;18.97;96.58;98057.25;4125263;28;20663;-86
2023/09/11 02:58:05;;;;;;;11.83;10.10;;;;;;;18.93;96.54;98055.94;4104821;28;20632;-87
2023/09/11 03:00:09;;;;;;;12.17;10.00;;;;;;;18.88;97.20;98052.91;4126203;28;20639;-86
2023/09/11 03:02:12;;;;;;;11.43;10.23;;;;;;;18.86;97.16;98051.44;4118706;28;21029;-87
2023/09/11 03:04:15;;;;;;;11.63;10.43;;;;;;;18.83;97.72;98052.56;4122658;28;20678;-86
2023/09/11 03:06:18;;;;;;;13.80;10.10;;;;;;;18.84;96.49;98056.88;4122275;28;21201;-87
2023/09/11 03:08:23;;;;;;;11.27;10.03;;;;;;;18.81;97.45;98057.19;4124506;28;21238;-87
2023/09/11 03:10:29;;;;;;;10.80;9.70;;;;;;;18.85;96.95;98062.97;4108324;28;21360;-87
2023/09/11 03:12:34;;;;;;;13.00;9.67;;;;;;;18.84;97.07;98059.50;4125607;28;20669;-86
2023/09/11 03:14:38;;;;;;;11.30;10.10;;;;;;;18.80;97.85;98055.50;4123914;28;20690;-86
2023/09/11 03:16:43;;;;;;;12.17;10.87;;;;;;;18.78;97.00;98052.22;4109703;28;20648;-87
2023/09/11 03:18:47;;;;;;;13.20;11.07;;;;;;;18.76;97.88;98059.44;4115174;28;20753;-87
2023/09/11 03:20:54;;;;;;;13.87;10.83;;;;;;;18.75;97.98;98064.88;4105149;28;21282;-86
2023/09/11 03:22:59;;;;;;;10.90;9.80;;;;;;;18.73;97.06;98054.47;4112438;28;20710;-86
2023/09/11 03:25:05;;;;;;;15.30;9.80;;;;;;;18.73;97.34;98058.94;4120658;28;20694;-86
2023/09/11 03:27:08;;;;;;;12.23;11.03;;;;;;;18.70;97.23;98057.44;4137444;28;20618;-87
2023/09/11 03:29:12;;;;;;;11.20;10.10;;;;;;;18.69;97.30;98058.44;4100738;28;20640;-87
2023/09/11 03:31:16;;;;;;;12.63;10.43;;;;;;;18.69;98.12;98062.88;4109115;28;20744;-87
2023/09/11 03:33:19;;;;;;;15.27;10.30;;;;;;;18.68;97.52;98048.81;4130290;28;20633;-87
2023/09/11 03:35:24;;;;;;;12.17;10.73;;;;;;;18.69;97.68;98053.13;4127043;28;20631;-86
2023/09/11 03:37:27;;;;;;;12.30;10.80;;;;;;;18.65;97.74;98065.00;4122511;28;21226;-86
2023/09/11 03:39:31;;;;;;;14.27;11.40;;;;;;;18.63;97.49;98053.75;4109444;28;20664;-86
2023/09/11 03:41:35;;;;;;;12.10;10.80;;;;;;;18.62;97.78;98056.56;4120229;28;21324;-87
2023/09/11 03:43:39;;;;;;;12.87;10.63;;;;;;;18.61;98.18;98054.88;4123532;28;20688;-87
2023/09/11 03:45:42;;;;;;;11.20;10.10;;;;;;;18.63;98.08;98058.22;4131963;28;21264;-86
2023/09/11 03:47:45;;;;;;;11.50;10.40;;;;;;;18.60;97.69;98054.06;4137580;28;20639;-87
2023/09/11 03:49:49;;;;;;;12.30;11.00;;;;;;;18.59;98.05;98054.22;4121746;28;21071;-87
2023/09/11 03:51:52;;;;;;;11.30;10.20;;;;;;;18.57;97.70;98053.56;4124484;28;20753;-87
2023/09/11 03:53:55;;;;;;;12.13;10.17;;;;;;;18.56;97.30;98051.88;4121627;28;20635;-87
2023/09/11 03:56:01;;;;;;;13.20;10.67;;;;;;;18.54;97.70;98059.97;4109723;28;20636;-87
2023/09/11 03:58:06;;;;;;;11.77;10.10;;;;;;;18.54;97.65;98059.16;4122885;28;20698;-87
2023/09/11 04:00:11;;;;;;;12.30;11.10;;;;;;;18.53;97.50;98052.19;4121433;28;20741;-87
2023/09/11 04:02:17;;;;;;;11.83;10.63;;;;;;;18.51;97.97;98055.00;4101932;28;20631;-86
2023/09/11 04:04:20;;;;;;;14.50;12.03;;;;;;;18.52;97.93;98046.09;4108426;28;20707;-89
2023/09/11 04:06:24;;;;;;;11.77;10.60;;;;;;;18.51;97.85;98055.00;4102865;28;20656;-87
2023/09/11 04:08:28;;;;;;;11.70;9.70;;;;;;;18.48;98.11;98047.38;4122742;28;20696;-86
2023/09/11 04:10:31;;;;;;;11.73;10.53;;;;;;;18.47;98.28;98050.16;4110757;28;21285;-86
2023/09/11 04:12:34;;;;;;;12.80;10.10;;;;;;;18.45;98.24;98044.22;4113751;28;20664;-87
2023/09/11 04:14:39;;;;;;;13.37;10.93;;;;;;;18.45;98.35;98045.03;4121403;28;21296;-87
2023/09/11 04:16:42;;;;;;;12.40;11.20;;;;;;;18.44;97.99;98042.56;4109311;28;20706;-86
2023/09/11 04:18:46;;;;;;;12.70;11.50;;;;;;;18.42;98.04;98034.78;4121400;28;21081;-86
2023/09/11 04:20:49;;;;;;;13.13;11.73;;;;;;;18.45;98.49;98041.59;4111422;28;20679;-86
2023/09/11 04:22:53;;;;;;;13.03;10.70;;;;;;;18.44;97.84;98042.56;4123552;28;21325;-87
2023/09/11 04:24:56;;;;;;;12.20;11.00;;;;;;;18.43;98.34;98040.88;4125619;28;20638;-86
2023/09/11 04:26:58;;;;;;;13.30;11.43;;;;;;;18.42;98.38;98042.72;4107579;28;20737;-87
2023/09/11 04:29:02;;;;;;;12.30;11.03;;;;;;;18.40;98.11;98043.84;4132062;28;20632;-86
2023/09/11 04:31:06;;;;;;;14.00;11.50;;;;;;;18.37;98.24;98044.13;4124221;28;20639;-87
2023/09/11 04:33:10;;;;;;;12.80;10.50;;;;;;;18.36;98.64;98049.56;4108930;28;20679;-87
2023/09/11 04:35:12;;;;;;;12.43;11.00;;;;;;;18.37;98.31;98048.59;4123660;28;20676;-86
2023/09/11 04:37:16;;;;;;;12.53;11.27;;;;;;;18.37;98.57;98046.78;4122412;28;21603;-87
2023/09/11 04:39:22;;;;;;;13.73;11.67;;;;;;;18.36;98.22;98052.22;4124983;28;20634;-87
2023/09/11 04:41:28;;;;;;;12.00;10.57;;;;;;;18.35;98.08;98043.47;4108555;28;21336;-86
2023/09/11 04:43:35;;;;;;;12.13;10.73;;;;;;;18.33;98.10;98056.00;4107947;28;20631;-86
2023/09/11 04:45:38;;;;;;;14.20;11.57;;;;;;;18.33;98.19;98055.16;4115491;28;21224;-86
2023/09/11 04:47:42;;;;;;;12.70;11.40;;;;;;;18.31;98.29;98057.13;4123406;28;20639;-86
2023/09/11 04:49:46;;;;;;;11.67;10.40;;;;;;;18.32;98.64;98053.53;4105314;28;20632;-86
2023/09/11 04:51:49;;;;;;;13.77;10.70;;;;;;;18.31;98.09;98046.56;4112342;28;20698;-86
2023/09/11 04:53:52;;;;;;;12.50;10.80;;;;;;;18.31;98.67;98049.22;4116417;28;20658;-86
2023/09/11 04:55:57;;;;;;;12.67;10.83;;;;;;;18.31;98.20;98054.50;4104234;28;20633;-87
2023/09/11 04:58:00;;;;;;;12.17;10.90;;;;;;;18.28;97.99;98053.00;4118972;28;20638;-86
2023/09/11 05:00:09;;;;;;;13.53;12.10;;;;;;;18.29;97.95;98053.84;4108279;28;20666;-86
2023/09/11 05:02:15;;;;;;;15.23;11.33;;;;;;;18.26;98.32;98054.13;4123397;28;20684;-87
2023/09/11 05:04:19;;;;;;;13.03;10.90;;;;;;;18.24;98.37;98056.94;4112875;28;20674;-86
2023/09/11 05:06:23;;;;;;;12.53;11.27;;;;;;;18.22;97.97;98065.97;4108032;28;20697;-86
2023/09/11 05:08:26;;;;;;;12.43;11.13;;;;;;;18.22;97.82;98069.47;4105094;28;21034;-86
2023/09/11 05:10:31;;;;;;;15.80;12.63;;;;;;;18.24;98.40;98066.66;4108214;28;21253;-87
2023/09/11 05:12:34;;;;;;;13.13;11.83;;;;;;;18.25;98.69;98069.16;4133697;28;20684;-86
2023/09/11 05:14:38;;;;;;;13.63;11.97;;;;;;;18.33;98.96;98071.00;4125407;28;20657;-87
2023/09/11 05:16:41;;;;;;;13.57;12.17;;;;;;;18.42;98.63;98065.66;4107954;28;21185;-88
2023/09/11 05:18:44;;;;;;;14.10;11.97;;;;;;;18.51;98.24;98070.03;4110760;28;20631;-87
2023/09/11 05:20:50;;;;;;;13.67;12.17;;;;;;;18.61;97.61;98068.94;4120703;28;21167;-86
2023/09/11 05:22:58;;;;;;;14.93;11.80;;;;;;;18.74;97.96;98068.53;4124263;28;20649;-86
2023/09/11 05:25:01;;;;;;;13.30;11.90;;;;;;;18.81;97.49;98075.69;4115940;28;20716;-86
2023/09/11 05:27:05;;;;;;;14.77;12.90;;;;;;;18.91;97.57;98071.94;4119475;28;20626;-86
2023/09/11 05:29:08;;;;;;;14.20;11.90;;;;;;;19.02;97.10;98068.25;4103906;28;20627;-86
2023/09/11 05:31:11;;;;;;;12.50;11.20;;;;;;;19.11;97.07;98073.41;4115668;28;20774;-85
2023/09/11 05:33:14;;;;;;;13.70;12.30;;;;;;;19.21;95.67;98075.94;4100741;28;21292;-88
2023/09/11 05:35:17;;;;;;;14.00;11.87;;;;;;;19.29;95.16;98073.31;4113795;28;20633;-86
2023/09/11 05:37:22;;;;;;;13.87;12.43;;;;;;;19.36;95.99;98069.88;4112553;28;20674;-84
2023/09/11 05:39:28;;;;;;;14.23;11.97;;;;;;;19.46;95.42;98076.69;4117059;28;20672;-86
2023/09/11 05:41:31;;;;;;;12.40;11.00;;;;;;;19.58;95.46;98069.31;4110511;28;21214;-83
2023/09/11 05:43:33;;;;;;;12.70;11.40;;;;;;;19.67;94.86;98078.94;4121563;28;21304;-85
2023/09/11 05:45:37;;;;;;;19.40;12.30;;;;;;;19.78;93.38;98079.44;4115387;28;20691;-83
2023/09/11 05:47:41;;;;;;;12.63;11.30;;;;;;;19.91;94.44;98087.81;4119151;28;20643;-84
2023/09/11 05:49:43;;;;;;;13.27;11.80;;;;;;;19.99;94.17;98085.97;4118208;28;20736;-83
2023/09/11 05:51:46;;;;;;;14.30;11.20;;;;;;;20.12;92.42;98096.13;4107222;28;20671;-84
2023/09/11 05:53:51;;;;;;;13.33;11.60;;;;;;;20.22;91.39;98092.34;4105446;28;20652;-83
2023/09/11 05:55:55;;;;;;;13.93;11.50;;;;;;;20.32;91.14;98099.09;4118539;28;20628;-83
2023/09/11 05:58:01;;;;;;;13.87;11.50;;;;;;;20.43;91.58;98103.25;4116476;28;21069;-83
2023/09/11 06:00:12;;;;;;;12.07;10.80;;;;;;;20.54;91.70;98103.78;4100965;28;20644;-84
2023/09/11 06:02:16;;;;;;;13.00;11.30;;;;;;;20.67;91.40;98105.91;4109366;28;20648;-83
2023/09/11 06:04:19;;;;;;;13.53;11.60;;;;;;;20.81;91.71;98108.78;4101272;28;21114;-83
2023/09/11 06:06:22;;;;;;;13.10;11.80;;;;;;;20.92;91.08;98103.94;4098829;28;21252;-83
2023/09/11 06:08:25;;;;;;;12.97;11.60;;;;;;;21.05;90.19;98103.41;4114760;28;20706;-83
2023/09/11 06:10:30;;;;;;;12.53;11.33;;;;;;;21.16;89.35;98105.72;4116518;28;20634;-83
2023/09/11 06:12:33;;;;;;;12.50;10.80;;;;;;;21.24;87.24;98098.53;4102904;28;20641;-83
2023/09/11 06:14:37;;;;;;;12.33;11.13;;;;;;;21.31;87.39;98110.97;4112925;28;20663;-83
2023/09/11 06:16:41;;;;;;;18.70;11.70;;;;;;;21.36;87.46;98103.34;4112064;28;20678;-83
2023/09/11 06:18:45;;;;;;;12.50;11.30;;;;;;;21.42;86.62;98093.84;4116354;28;20659;-83
2023/09/11 06:20:49;;;;;;;12.53;11.30;;;;;;;21.47;86.28;98100.34;4119411;28;21066;-83
2023/09/11 06:22:52;;;;;;;14.73;12.43;;;;;;;21.60;87.76;98102.44;4107177;28;20636;-83
2023/09/11 06:24:55;;;;;;;15.97;12.50;;;;;;;21.74;87.00;98104.38;4120972;28;20679;-83
2023/09/11 06:27:05;;;;;;;14.10;12.57;;;;;;;21.88;88.16;98110.59;4117611;28;20624;-83
2023/09/11 06:29:09;;;;;;;12.60;11.43;;;;;;;22.03;88.60;98106.19;4126496;28;20624;-83
2023/09/11 06:31:12;;;;;;;15.03;11.83;;;;;;;22.19;88.27;98105.28;4123700;28;20728;-84
2023/09/11 06:33:15;;;;;;;12.23;10.93;;;;;;;22.35;86.14;98109.50;4117246;28;20739;-83
2023/09/11 06:35:18;;;;;;;14.67;11.40;;;;;;;22.47;85.85;98101.94;4119577;28;20629;-84
2023/09/11 06:37:22;;;;;;;13.33;12.03;;;;;;;22.60;84.64;98118.16;4121767;28;20642;-83
2023/09/11 06:39:25;;;;;;;13.30;12.00;;;;;;;22.74;85.86;98112.84;4121275;28;20673;-85
2023/09/11 06:41:28;;;;;;;13.60;11.87;;;;;;;22.87;85.00;98123.72;4119051;28;21209;-84
2023/09/11 06:43:33;;;;;;;13.63;11.20;;;;;;;22.96;83.40;98123.50;4118811;28;20621;-83
2023/09/11 06:45:36;;;;;;;12.90;11.63;;;;;;;23.04;83.49;98115.44;4120189;28;21272;-83
2023/09/11 06:47:39;;;;;;;14.60;11.50;;;;;;;23.13;82.82;98113.53;4113881;28;20623;-83
2023/09/11 06:49:42;;;;;;;12.97;11.50;;;;;;;23.20;82.50;98115.28;4117829;28;20630;-83
2023/09/11 06:51:45;;;;;;;16.03;12.60;;;;;;;23.27;82.97;98114.38;4131192;28;20670;-83
2023/09/11 06:53:49;;;;;;;12.13;10.83;;;;;;;23.40;84.31;98111.88;4122531;28;20661;-83
2023/09/11 06:55:53;;;;;;;12.60;11.30;;;;;;;23.62;85.13;98118.97;4122938;28;20678;-83
2023/09/11 06:57:58;;;;;;;11.87;10.67;;;;;;;23.74;82.95;98113.00;4124941;28;20606;-83
2023/09/11 07:00:08;;;;;;;13.07;11.80;;;;;;;23.85;82.40;98111.72;4119748;28;20632;-83
2023/09/11 07:02:11;;;;;;;13.47;12.23;;;;;;;23.99;83.22;98116.19;4121039;28;20642;-83
2023/09/11 07:04:14;;;;;;;12.73;11.53;;;;;;;24.13;82.22;98115.31;4115546;28;20713;-83
2023/09/11 07:06:18;;;;;;;12.50;11.30;;;;;;;24.21;82.16;98113.38;4108004;28;21224;-83
2023/09/11 07:08:23;;;;;;;14.97;11.20;;;;;;;24.40;82.95;98116.28;4119941;28;20624;-83
2023/09/11 07:10:26;;;;;;;12.33;10.90;;;;;;;24.44;81.50;98114.06;4108654;28;20675;-83
2023/09/11 07:12:43;;;;;;;12.40;11.20;;;;;;;24.53;81.17;98120.91;4126162;28;21072;-83
2023/09/11 07:14:46;;;;;;;13.53;12.10;;;;;;;24.68;81.55;98115.31;4135794;28;20660;-84
2023/09/11 07:16:51;;;;;;;12.90;11.60;;;;;;;24.77;82.45;98113.34;4122875;28;20648;-83
2023/09/11 07:18:54;;;;;;;13.33;11.90;;;;;;;24.89;80.87;98119.81;4116355;28;21068;-83
2023/09/11 07:20:58;;;;;;;13.97;12.57;;;;;;;25.02;82.14;98131.47;4124896;28;20674;-83
2023/09/11 07:23:01;;;;;;;13.50;12.20;;;;;;;25.19;80.87;98114.13;4110475;28;20721;-83
2023/09/11 07:25:11;;;;;;;12.00;11.00;;;;;;;25.30;82.43;98118.94;4122019;28;20633;-84
2023/09/11 07:27:14;;;;;;;11.50;10.50;;;;;;;25.38;80.02;98108.94;4118851;28;20634;-83
2023/09/11 07:29:17;;;;;;;12.80;11.60;;;;;;;25.46;80.16;98115.97;4094823;28;20626;-83
2023/09/11 07:31:20;;;;;;;14.73;11.83;;;;;;;25.52;79.41;98117.84;4119857;28;21221;-83
2023/09/11 07:33:24;;;;;;;12.70;11.53;;;;;;;25.63;80.72;98113.59;4126838;28;21317;-83
2023/09/11 07:35:28;;;;;;;13.30;12.10;;;;;;;25.79;79.89;98112.47;4123213;28;20680;-83
2023/09/11 07:37:31;;;;;;;12.40;11.20;;;;;;;25.89;78.91;98112.91;4119300;28;20645;-83
2023/09/11 07:39:34;;;;;;;12.07;10.87;;;;;;;25.96;79.65;98116.44;4133461;28;20705;-83
2023/09/11 07:41:37;;;;;;;14.27;12.77;;;;;;;26.17;80.96;98115.28;4111294;28;20687;-83
2023/09/11 07:43:40;;;;;;;14.17;12.77;;;;;;;26.37;82.54;98115.38;4110608;28;20722;-83
2023/09/11 07:45:45;;;;;;;13.90;12.43;;;;;;;26.56;78.99;98117.28;4123842;28;20634;-83
2023/09/11 07:47:48;;;;;;;12.67;11.47;;;;;;;26.65;81.03;98111.53;4115918;28;20695;-83
2023/09/11 07:49:53;;;;;;;13.27;12.07;;;;;;;26.83;80.16;98109.88;4118078;28;20632;-83
2023/09/11 07:51:56;;;;;;;13.57;12.10;;;;;;;26.98;78.40;98107.06;4125878;28;21775;-84
2023/09/11 07:53:59;;;;;;;13.80;12.37;;;;;;;27.12;81.12;98107.66;4112310;28;21126;-84
2023/09/11 07:56:05;;;;;;;13.70;12.37;;;;;;;27.30;78.43;98107.81;4115556;28;20646;-85
2023/09/11 07:58:09;;;;;;;12.90;11.80;;;;;;;27.47;78.47;98108.22;4123088;28;21214;-83
2023/09/11 08:00:14;;;;;;;13.13;11.83;;;;;;;27.64;77.94;98111.09;4114687;28;20621;-84
2023/09/11 08:02:17;;;;;;;13.57;12.17;;;;;;;27.72;75.94;98113.53;4108782;28;20641;-83
2023/09/11 08:04:20;;;;;;;14.20;12.70;;;;;;;27.80;75.89;98101.75;4125198;28;20666;-83
2023/09/11 08:06:24;;;;;;;12.50;11.30;;;;;;;27.91;74.73;98112.66;4119041;28;20650;-83
2023/09/11 08:08:28;;;;;;;11.70;10.70;;;;;;;28.00;75.60;98106.84;4119650;28;21226;-84
2023/09/11 08:10:31;;;;;;;12.50;11.37;;;;;;;28.06;74.86;98114.03;4113353;28;20659;-83
2023/09/11 08:12:35;;;;;;;15.97;14.23;;;;;;;28.19;76.25;98111.34;4118590;28;20637;-84
2023/09/11 08:14:38;;;;;;;11.83;10.63;;;;;;;28.34;75.82;98114.56;4115132;28;20710;-83
2023/09/11 08:16:42;;;;;;;13.73;11.10;;;;;;;28.52;75.78;98111.97;4115618;28;21288;-83
2023/09/11 08:18:46;;;;;;;13.67;11.10;;;;;;;28.65;75.08;98114.56;4115846;28;20651;-83
2023/09/11 08:20:50;;;;;;;14.53;11.33;;;;;;;28.70;73.97;98112.94;4116632;28;20742;-84
2023/09/11 08:22:55;;;;;;;12.30;11.10;;;;;;;28.70;72.26;98107.56;4118340;28;20634;-83
2023/09/11 08:24:57;;;;;;;12.13;10.70;;;;;;;28.69;71.34;98105.09;4117393;28;20642;-84
2023/09/11 08:27:00;;;;;;;12.40;11.13;;;;;;;28.70;73.61;98109.41;4120408;28;21054;-83
2023/09/11 08:29:04;;;;;;;11.50;10.40;;;;;;;28.84;74.64;98113.66;4122379;28;20651;-84
2023/09/11 08:31:07;;;;;;;11.90;10.70;;;;;;;28.93;74.25;98115.84;4113869;28;20711;-84
2023/09/11 08:33:10;;;;;;;11.53;10.43;;;;;;;29.03;74.50;98111.63;4112461;28;20636;-83
2023/09/11 08:35:14;;;;;;;12.87;11.57;;;;;;;29.00;72.06;98109.38;4118718;28;20656;-83
2023/09/11 08:37:17;;;;;;;12.73;11.60;;;;;;;28.91;72.88;98109.03;4123034;28;21345;-84
2023/09/11 08:39:21;;;;;;;11.43;10.33;;;;;;;29.00;73.05;98113.91;4119431;28;20761;-84
2023/09/11 08:41:25;;;;;;;11.93;10.87;;;;;;;29.10;72.32;98101.63;4121757;28;20631;-84
2023/09/11 08:43:29;;;;;;;12.87;10.30;;;;;;;29.14;71.58;98097.47;4114566;28;20703;-84
2023/09/11 08:45:32;;;;;;;11.47;10.47;;;;;;;29.18;74.04;98097.84;4111668;28;20624;-84
2023/09/11 08:47:36;;;;;;;11.70;10.50;;;;;;;29.24;74.17;98095.13;4116601;28;21227;-84
2023/09/11 08:49:45;;;;;;;13.50;12.27;;;;;;;29.31;71.39;98095.09;4106907;28;20626;-84
2023/09/11 08:51:50;;;;;;;12.37;11.27;;;;;;;29.18;71.63;98092.47;4123751;28;20663;-84
2023/09/11 08:53:55;;;;;;;11.80;10.63;;;;;;;29.23;71.90;98098.88;4110386;28;21176;-84
2023/09/11 08:56:00;;;;;;;12.80;10.13;;;;;;;29.35;73.47;98107.03;4120544;28;20698;-83
2023/09/11 08:58:07;;;;;;;11.57;10.47;;;;;;;29.40;72.80;98099.13;4124383;28;20645;-84
2023/09/11 09:00:13;;;;;;;12.33;11.17;;;;;;;29.43;70.96;98106.75;4137851;28;20697;-84
2023/09/11 09:02:17;;;;;;;11.50;10.50;;;;;;;29.43;70.43;98104.88;4109841;28;20626;-84
2023/09/11 09:04:20;;;;;;;14.20;11.13;;;;;;;29.47;70.84;98106.09;4125978;28;21078;-84
2023/09/11 09:06:24;;;;;;;11.07;10.17;;;;;;;29.46;71.96;98095.56;4122227;28;20634;-84
2023/09/11 09:08:27;;;;;;;11.23;10.23;;;;;;;29.50;68.10;98092.19;4100351;28;20649;-83
2023/09/11 09:10:34;;;;;;;10.93;9.93;;;;;;;29.45;68.22;98097.41;4113838;28;20620;-83
2023/09/11 09:12:39;;;;;;;11.53;10.43;;;;;;;29.50;68.56;98097.56;4123822;28;21015;-84
2023/09/11 09:14:42;;;;;;;11.47;10.37;;;;;;;29.43;68.96;98091.44;4119590;28;20631;-83
2023/09/11 09:16:46;;;;;;;15.07;11.00;;;;;;;29.46;68.73;98088.31;4115565;28;20724;-87
2023/09/11 09:18:50;;;;;;;11.63;10.50;;;;;;;29.54;69.76;98082.63;4116674;28;21184;-86
2023/09/11 09:20:55;;;;;;;12.07;10.63;;;;;;;29.58;68.96;98081.13;4118653;28;21321;-86
2023/09/11 09:23:00;;;;;;;11.60;10.60;;;;;;;29.55;68.46;98081.59;4118507;28;21026;-87
2023/09/11 09:25:03;;;;;;;11.70;10.50;;;;;;;29.55;68.73;98073.53;4106754;28;20633;-87
2023/09/11 09:27:06;;;;;;;11.87;10.67;;;;;;;29.65;68.88;98073.81;4113545;28;20629;-86
2023/09/11 09:29:12;;;;;;;11.37;10.30;;;;;;;29.69;69.71;98069.63;4115490;28;20709;-86
2023/09/11 09:31:22;;;;;;;11.60;10.50;;;;;;;29.74;68.48;98077.84;4119143;28;21253;-86
2023/09/11 09:33:26;;;;;;;11.40;10.40;;;;;;;29.76;69.26;98070.38;4124305;28;20630;-86